Time;durP1;ratioP1;P1;durP2;ratioP2;P2;SDS_P1;SDS_P2;PMS_P1;PMS_P2;Temp;Humidity;BMP_temperature;BMP_pressure;BME280_temperature;BME280_humidity;BME280_pressure;Samples;Min_cycle;Max_cycle;Signal;HPM_P1;HPM_P2
2023/01/06 00:00:25;;;;;;;;;;;7.30;99.90;;;;;;5039561;28;19941;-80
2023/01/06 00:02:51;;;;;;;;;;;7.10;99.90;;;;;;5040191;28;19900;-80
2023/01/06 00:05:16;;;;;;;;;;;6.90;99.90;;;;;;5039681;28;19909;-80
2023/01/06 00:07:43;;;;;;;;;;;6.90;99.90;;;;;;5039546;28;19973;-79
2023/01/06 00:10:09;;;;;;;;;;;6.80;99.90;;;;;;5038600;28;19901;-81
2023/01/06 00:12:34;;;;;;;;;;;6.70;99.90;;;;;;5039509;28;19900;-79
2023/01/06 00:15:00;;;;;;;;;;;6.60;99.90;;;;;;5038798;28;19893;-80
2023/01/06 00:17:26;;;;;;;;;;;6.70;99.90;;;;;;5038711;28;19893;-78
2023/01/06 00:19:51;;;;;;;;;;;6.60;99.90;;;;;;5039034;28;19921;-80
2023/01/06 00:22:17;;;;;;;;;;;6.60;99.90;;;;;;5038897;28;19901;-80
2023/01/06 00:24:43;;;;;;;;;;;6.50;99.90;;;;;;5038701;28;19893;-80
2023/01/06 00:27:08;;;;;;;;;;;6.60;99.90;;;;;;5038951;28;19905;-81
2023/01/06 05:23:12;;;;;;;;;;;4.50;99.90;;;;;;6213041;22;19953;31
2023/01/06 05:25:37;;;;;;;;;;;4.50;99.90;;;;;;5037451;28;19964;-80
2023/01/06 05:28:03;;;;;;;;;;;4.40;99.90;;;;;;5040701;28;19921;-80
2023/01/06 05:30:29;;;;;;;;;;;4.30;99.90;;;;;;5042999;28;19901;-80
2023/01/06 05:32:54;;;;;;;;;;;4.30;99.90;;;;;;5042782;28;19901;-79
2023/01/06 05:35:20;;;;;;;;;;;4.20;99.90;;;;;;5026176;28;19912;-80
2023/01/06 05:37:46;;;;;;;;;;;4.20;99.90;;;;;;5042636;28;19921;-80
2023/01/06 05:40:11;;;;;;;;;;;4.10;99.90;;;;;;5042618;28;19905;-80
2023/01/06 05:42:37;;;;;;;;;;;4.10;99.90;;;;;;5025654;28;19894;-80
2023/01/06 05:45:03;;;;;;;;;;;4.00;99.90;;;;;;5025909;28;19914;-80
2023/01/06 05:47:31;;;;;;;;;;;3.90;99.90;;;;;;5042680;28;19894;-80
2023/01/06 05:49:57;;;;;;;;;;;4.00;99.90;;;;;;5025703;28;19916;-79
2023/01/06 05:52:22;;;;;;;;;;;4.00;99.90;;;;;;5042124;28;19894;-80
2023/01/06 05:54:48;;;;;;;;;;;4.10;99.90;;;;;;5041536;28;19983;-79
2023/01/06 05:57:14;;;;;;;;;;;4.20;99.90;;;;;;5024761;28;19893;-79
2023/01/06 05:59:39;;;;;;;;;;;4.20;99.90;;;;;;5041270;28;19917;-78
2023/01/06 06:02:05;;;;;;;;;;;4.10;99.90;;;;;;5024985;28;19894;-80
2023/01/06 06:04:31;;;;;;;;;;;4.10;99.90;;;;;;5025070;28;19893;-80
2023/01/06 06:06:56;;;;;;;;;;;3.90;99.90;;;;;;5025492;28;19893;-80
2023/01/06 06:09:22;;;;;;;;;;;3.80;99.90;;;;;;5041470;28;19917;-80
2023/01/06 06:11:50;;;;;;;;;;;3.80;99.90;;;;;;5023767;28;19893;-80
2023/01/06 06:14:16;;;;;;;;;;;3.60;99.90;;;;;;5024745;28;19894;-79
2023/01/06 06:16:41;;;;;;;;;;;3.70;99.90;;;;;;5024618;28;19901;-80
2023/01/06 06:19:07;;;;;;;;;;;3.90;99.90;;;;;;5040559;28;19920;-80
2023/01/06 06:21:33;;;;;;;;;;;3.70;99.90;;;;;;5023987;28;19956;-79
2023/01/06 06:23:59;;;;;;;;;;;3.80;99.90;;;;;;5023603;28;19912;-80
2023/01/06 06:44:11;;;;;;;11.63;4.88;;;3.90;99.90;;;;;;5038076;28;20386;-81
2023/01/06 06:46:37;;;;;;;;;;;4.10;99.90;;;;;;5037667;28;20041;-82
2023/01/06 06:49:03;;;;;;;4.50;1.83;;;4.10;99.90;;;;;;5023316;28;20557;-80
2023/01/06 06:51:28;;;;;;;;;;;4.40;99.90;;;;;;5021646;28;20478;-79
2023/01/06 06:53:54;;;;;;;5.18;1.70;;;4.60;99.90;;;;;;5040904;28;20328;-81
2023/01/06 06:56:20;;;;;;;;;;;4.50;99.90;;;;;;5041230;28;20053;-81
2023/01/06 06:58:47;;;;;;;6.00;3.13;;;4.70;99.90;;;;;;5037192;28;19949;-80
2023/01/06 07:01:15;;;;;;;5.72;1.67;;;4.80;99.90;;;;;;5021844;28;20029;-79
2023/01/06 07:03:41;;;;;;;3.78;1.50;;;4.90;99.90;;;;;;5042673;28;20041;-81
2023/01/06 07:06:11;;;;;;;3.17;1.23;;;5.00;99.90;;;;;;5043012;28;20026;-81
2023/01/06 07:08:37;;;;;;;6.38;1.60;;;5.10;99.90;;;;;;5031694;28;20030;-82
2023/01/06 07:11:03;;;;;;;;;;;5.10;99.90;;;;;;5044570;28;20485;-80
2023/01/06 07:13:32;;;;;;;2.80;0.70;;;5.30;99.90;;;;;;5027464;28;19928;-80
2023/01/06 07:15:58;;;;;;;3.10;1.10;;;5.30;99.90;;;;;;5025170;28;20123;-80
2023/01/06 07:18:25;;;;;;;;;;;5.60;99.90;;;;;;5043783;28;20069;-81
2023/01/06 07:20:52;;;;;;;4.53;0.80;;;5.80;99.90;;;;;;5043816;28;19924;-81
2023/01/06 07:23:19;;;;;;;2.85;0.82;;;6.10;99.90;;;;;;5042680;28;20034;-80
2023/01/06 07:25:45;;;;;;;5.78;1.05;;;6.40;99.90;;;;;;5049857;28;20021;-82
2023/01/06 07:28:10;;;;;;;;;;;6.60;99.90;;;;;;5045821;28;20033;-80
2023/01/06 07:30:36;;;;;;;2.47;0.60;;;6.90;99.90;;;;;;5025771;28;19905;-80
2023/01/06 07:33:03;;;;;;;2.88;0.80;;;7.00;99.90;;;;;;5042285;28;20064;-79
2023/01/06 07:35:29;;;;;;;3.35;1.15;;;7.20;99.90;;;;;;5024793;28;20388;-80
2023/01/06 07:37:54;;;;;;;;;;;7.30;99.90;;;;;;5020307;28;20037;-80
2023/01/06 07:40:20;;;;;;;5.55;0.95;;;7.40;99.90;;;;;;5012681;28;20314;-81
2023/01/06 07:42:46;;;;;;;;;;;7.60;99.90;;;;;;5039134;28;20046;-80
2023/01/06 07:45:12;;;;;;;3.72;1.17;;;7.70;99.90;;;;;;5023913;28;20354;-80
2023/01/06 07:47:38;;;;;;;;;;;7.90;99.90;;;;;;5041741;28;20016;-80
2023/01/06 07:50:05;;;;;;;3.22;1.05;;;8.00;99.90;;;;;;5025598;28;19929;-80
2023/01/06 07:52:31;;;;;;;9.48;2.22;;;8.20;99.90;;;;;;5038712;28;20038;-80
2023/01/06 07:54:58;;;;;;;;;;;8.40;99.90;;;;;;5028251;28;20087;-80
2023/01/06 07:57:25;;;;;;;18.60;6.10;;;8.60;99.90;;;;;;5023089;28;20000;-79
2023/01/06 07:59:51;;;;;;;9.55;4.03;;;8.80;99.90;;;;;;5024137;28;20041;-80
2023/01/06 08:02:17;;;;;;;;;;;9.00;99.90;;;;;;5023082;28;20025;-80
2023/01/06 08:04:43;;;;;;;4.40;1.45;;;9.20;99.90;;;;;;5006155;28;20416;-80
2023/01/06 08:07:08;;;;;;;3.33;1.33;;;9.40;99.90;;;;;;5007598;28;20061;-79
2023/01/06 08:09:34;;;;;;;;;;;9.50;99.90;;;;;;5005857;28;20105;-79
2023/01/06 08:12:00;;;;;;;1.00;0.40;;;9.70;99.90;;;;;;5023020;28;20357;-80
2023/01/06 08:14:25;;;;;;;;;;;9.90;99.90;;;;;;5005827;28;20148;-80
2023/01/06 08:16:51;;;;;;;0.80;0.40;;;10.10;99.80;;;;;;5023907;28;19905;-80
2023/01/06 08:19:16;;;;;;;;;;;10.30;99.50;;;;;;5026525;28;20022;-80
2023/01/06 08:21:42;;;;;;;2.08;0.60;;;10.40;97.50;;;;;;5007461;28;19996;-81
2023/01/06 08:24:08;;;;;;;;;;;10.50;97.10;;;;;;4999163;28;20061;-82
2023/01/06 08:26:33;;;;;;;1.17;0.47;;;10.80;95.80;;;;;;4995453;28;19905;-83
2023/01/06 08:28:59;;;;;;;;;;;11.10;94.40;;;;;;4994422;28;20116;-84
2023/01/06 08:31:25;;;;;;;1.48;0.40;;;11.40;93.70;;;;;;4994177;28;19944;-84
2023/01/06 08:33:52;;;;;;;;;;;11.70;92.50;;;;;;5012078;28;20572;-84
2023/01/06 08:36:19;;;;;;;2.80;0.43;;;12.00;89.70;;;;;;4994241;28;19910;-81
2023/01/06 08:38:46;;;;;;;1.10;0.47;;;12.10;90.60;;;;;;5012031;28;20033;-82
2023/01/06 08:41:12;;;;;;;0.93;0.40;;;12.00;87.80;;;;;;4994268;28;20116;-84
2023/01/06 08:43:40;;;;;;;2.03;0.77;;;11.90;84.60;;;;;;5011567;28;20052;-87
2023/01/06 08:46:09;;;;;;;1.95;0.60;;;11.80;86.90;;;;;;4993966;28;20418;-87
2023/01/06 08:48:35;;;;;;;2.15;0.60;;;11.70;90.70;;;;;;4994516;28;20021;-84
2023/01/06 08:51:05;;;;;;;;;;;11.40;85.80;;;;;;4994797;28;20490;-85
2023/01/06 08:53:31;;;;;;;2.03;0.98;;;11.30;90.00;;;;;;4994914;28;19913;-86
2023/01/06 08:55:57;;;;;;;2.33;0.50;;;11.30;91.40;;;;;;4994047;28;20065;-86
2023/01/06 08:58:23;;;;;;;1.65;0.50;;;11.30;91.80;;;;;;4995488;28;20621;-81
2023/01/06 09:00:48;;;;;;;;;;;11.10;89.30;;;;;;5013156;28;20041;-86
2023/01/06 09:03:14;;;;;;;13.40;3.22;;;11.00;90.70;;;;;;5012400;28;20375;-86
2023/01/06 09:05:39;;;;;;;;;;;11.00;92.50;;;;;;5026784;28;20053;-80
2023/01/06 09:08:05;;;;;;;12.05;2.00;;;10.80;95.00;;;;;;5010542;28;19905;-81
2023/01/06 09:10:31;;;;;;;;;;;10.40;98.50;;;;;;5010614;28;20021;-80
2023/01/06 09:12:56;;;;;;;7.68;2.22;;;10.10;98.70;;;;;;5013822;28;19929;-82
2023/01/06 09:15:22;;;;;;;;;;;9.90;99.90;;;;;;5017334;28;20021;-80
2023/01/06 09:17:48;;;;;;;12.48;5.97;;;9.60;99.90;;;;;;5034772;28;19901;-80
2023/01/06 09:20:13;;;;;;;;;;;9.40;99.90;;;;;;5028029;28;20026;-81
2023/01/06 09:22:39;;;;;;;24.33;9.77;;;9.40;99.90;;;;;;5035197;28;19972;-80
2023/01/06 10:01:05;;;;;;;5.60;2.42;;;9.30;99.90;;;;;;5955631;23;20072;31
2023/01/06 10:03:31;;;;;;;6.63;2.63;;;9.40;99.90;;;;;;4916949;29;20059;-80
2023/01/06 10:06:06;;;;;;;;;;;9.80;99.90;;;;;;4900063;29;20043;-80
2023/01/06 10:09:07;;;;;;;6.82;1.60;;;9.60;99.90;;;;;;4921512;29;19916;-80
2023/01/06 10:12:10;;;;;;;3.75;0.90;;;9.60;99.90;;;;;;4920470;29;20042;-81
2023/01/06 10:14:54;;;;;;;4.13;2.17;;;9.50;99.90;;;;;;4918957;29;20028;-80
2023/01/06 10:17:35;;;;;;;7.10;1.98;;;9.00;98.70;;;;;;4919058;29;20037;-80
2023/01/06 10:20:09;;;;;;;2.83;1.23;;;9.40;99.80;;;;;;4920979;29;20040;-80
2023/01/06 10:23:09;;;;;;;3.17;1.05;;;9.40;99.90;;;;;;4916521;29;20024;-80
2023/01/06 10:25:49;;;;;;;5.07;0.85;;;9.60;99.90;;;;;;4940984;29;20075;-80
2023/01/06 10:28:24;;;;;;;5.57;1.42;;;9.50;99.90;;;;;;4941007;29;20009;-80
2023/01/06 10:30:52;;;;;;;3.97;1.65;;;9.60;99.90;;;;;;4937383;29;20028;-80
2023/01/06 10:33:27;;;;;;;3.45;1.27;;;9.60;99.90;;;;;;4936324;29;20035;-81
2023/01/06 10:35:54;;;;;;;5.03;1.13;;;9.80;99.90;;;;;;4936515;29;20028;-79
2023/01/06 10:38:38;;;;;;;6.13;2.50;;;9.80;97.40;;;;;;4935768;29;20023;-81
2023/01/06 10:41:31;;;;;;;5.28;1.10;;;9.90;99.90;;;;;;4935771;29;20029;-79
2023/01/06 10:43:57;;;;;;;3.92;1.25;;;9.90;99.90;;;;;;4938601;29;20071;-81
2023/01/06 10:46:28;;;;;;;;;;;10.00;99.90;;;;;;4939536;29;20016;-79
2023/01/06 10:48:54;;;;;;;7.95;0.93;;;10.00;99.90;;;;;;4939364;28;19895;-81
2023/01/06 10:51:34;;;;;;;;;;;10.10;99.90;;;;;;4941522;28;20031;-81
2023/01/06 10:54:05;;;;;;;3.08;1.50;;;10.10;99.90;;;;;;4940236;29;19895;-81
2023/01/06 10:56:34;;;;;;;7.45;2.20;;;10.00;99.90;;;;;;4940738;29;20017;-81
2023/01/06 10:59:11;;;;;;;34.97;18.58;;;9.90;99.90;;;;;;4925664;28;20017;-82
2023/01/06 11:01:51;;;;;;;14.93;8.05;;;9.70;99.90;;;;;;4940860;28;20059;-80
2023/01/06 11:04:18;;;;;;;8.88;7.05;;;9.50;99.90;;;;;;4940768;29;20088;-80
2023/01/06 11:06:57;;;;;;;13.48;9.05;;;9.60;99.90;;;;;;4923173;29;20047;-81
2023/01/06 11:09:35;;;;;;;6.60;1.50;;;9.60;99.90;;;;;;4940874;29;20035;-81
2023/01/06 11:12:22;;;;;;;5.22;1.88;;;9.60;99.90;;;;;;4939121;28;20036;-81
2023/01/06 11:15:06;;;;;;;;;;;9.60;99.90;;;;;;4924280;28;20016;-80
2023/01/06 11:17:32;;;;;;;7.40;2.50;;;9.60;99.90;;;;;;4923419;29;19953;-80
2023/01/06 11:20:07;;;;;;;;;;;9.60;99.90;;;;;;4938730;29;20016;-80
2023/01/06 11:22:36;;;;;;;7.47;1.75;;;9.60;99.90;;;;;;4939398;29;19899;-80
2023/01/06 11:25:20;;;;;;;4.03;0.98;;;9.60;99.90;;;;;;4924434;28;20016;-80
2023/01/06 11:27:47;;;;;;;2.72;1.40;;;9.50;99.90;;;;;;4939487;29;20004;-81
2023/01/06 11:30:21;;;;;;;9.35;1.30;;;9.60;99.90;;;;;;4942167;28;20012;-81
2023/01/06 11:32:47;;;;;;;3.22;0.90;;;9.60;99.90;;;;;;4925653;29;20062;-80
2023/01/06 11:35:19;;;;;;;;;;;9.60;99.90;;;;;;4944058;28;20017;-81
2023/01/06 11:37:45;;;;;;;3.83;0.98;;;9.60;99.90;;;;;;4943343;28;19895;-81
2023/01/06 11:40:28;;;;;;;4.00;1.27;;;9.60;99.90;;;;;;4925077;29;20062;-80
2023/01/06 11:42:57;;;;;;;3.65;1.48;;;9.80;99.90;;;;;;4924957;29;20040;-80
2023/01/06 11:45:58;;;;;;;7.72;1.25;;;9.70;99.90;;;;;;4942655;29;20051;-81
2023/01/06 11:48:35;;;;;;;3.70;1.30;;;9.70;99.90;;;;;;4924876;29;20009;-80
2023/01/06 11:51:03;;;;;;;3.13;1.58;;;9.70;99.90;;;;;;4941072;29;20020;-80
2023/01/06 11:53:30;;;;;;;2.53;1.15;;;9.80;99.90;;;;;;4927386;29;20032;-79
2023/01/06 11:55:58;;;;;;;3.15;0.80;;;9.70;99.90;;;;;;4943823;29;20023;-80
2023/01/06 11:58:28;;;;;;;3.47;1.10;;;9.80;99.90;;;;;;4942473;29;20024;-81
2023/01/06 12:01:07;;;;;;;4.13;1.02;;;9.60;99.90;;;;;;4941772;29;20028;-80
2023/01/06 12:03:44;;;;;;;4.22;1.30;;;9.70;99.90;;;;;;4941558;29;20087;-80
2023/01/06 12:06:13;;;;;;;4.30;1.00;;;9.80;99.90;;;;;;4925243;29;20016;-80
2023/01/06 12:09:02;;;;;;;1.75;0.70;;;9.70;99.90;;;;;;4940619;29;20020;-80
2023/01/06 12:11:43;;;;;;;2.28;1.02;;;9.90;99.90;;;;;;4940724;29;20052;-80
2023/01/06 12:14:17;;;;;;;7.75;3.58;;;9.80;99.90;;;;;;4925922;29;20031;-80
2023/01/06 12:16:58;;;;;;;7.82;2.08;;;9.80;99.90;;;;;;4925833;29;20036;-81
2023/01/06 12:19:39;;;;;;;7.60;3.70;;;9.70;99.90;;;;;;4923838;29;20039;-80
2023/01/06 12:22:15;;;;;;;49.65;24.77;;;9.70;99.90;;;;;;4940170;29;20071;-81
2023/01/06 12:24:41;;;;;;;35.28;16.13;;;9.60;99.90;;;;;;4923615;29;20036;-80
2023/01/06 12:27:19;;;;;;;;;;;9.60;99.90;;;;;;4937380;29;20205;-81
2023/01/06 12:29:45;;;;;;;16.17;5.85;;;9.60;99.90;;;;;;4938049;29;19913;-79
2023/01/06 12:32:21;;;;;;;7.28;3.13;;;9.50;99.90;;;;;;4936808;29;20055;-80
2023/01/06 12:34:52;;;;;;;17.30;7.22;;;9.40;99.90;;;;;;4919394;29;20043;-79
2023/01/06 12:37:36;;;;;;;29.20;11.52;;;9.40;99.90;;;;;;4936212;29;20556;-79
2023/01/06 12:40:20;;;;;;;10.63;4.10;;;9.50;99.90;;;;;;4935250;29;20039;-80
2023/01/06 12:42:53;;;;;;;10.38;3.47;;;9.40;99.90;;;;;;4935726;29;20028;-80
2023/01/06 12:45:38;;;;;;;6.15;1.88;;;9.30;99.90;;;;;;4934306;29;20071;-79
2023/01/06 12:48:16;;;;;;;18.67;8.73;;;9.30;99.90;;;;;;4916631;29;20028;-80
2023/01/06 12:50:51;;;;;;;6.82;2.03;;;9.20;99.90;;;;;;4936261;29;20116;-80
2023/01/06 12:53:25;;;;;;;15.30;7.05;;;9.20;99.90;;;;;;4918944;29;20033;-80
2023/01/06 12:56:23;;;;;;;9.18;3.78;;;9.20;99.90;;;;;;4920164;29;20039;-80
2023/01/06 12:59:32;;;;;;;8.88;3.83;;;9.20;99.90;;;;;;4920383;29;20028;-80
2023/01/06 13:02:06;;;;;;;8.32;3.10;;;9.20;99.90;;;;;;4897586;29;20052;-79
2023/01/06 13:04:49;;;;;;;7.68;3.03;;;9.20;99.90;;;;;;4881561;29;20059;-80
2023/01/06 13:07:46;;;;;;;7.00;2.63;;;9.20;99.90;;;;;;4907572;29;20036;-80
2023/01/06 13:10:20;;;;;;;7.13;2.05;;;9.30;99.90;;;;;;4938090;29;20031;-80
2023/01/06 13:12:59;;;;;;;3.17;1.98;;;9.40;99.90;;;;;;4938238;29;20016;-80
2023/01/06 13:15:33;;;;;;;5.95;1.83;;;9.30;99.90;;;;;;4934654;29;20038;-79
2023/01/06 13:18:02;;;;;;;13.10;5.60;;;9.20;99.90;;;;;;4918668;29;20275;-79
2023/01/06 13:20:39;;;;;;;10.07;2.38;;;9.20;99.90;;;;;;4937246;29;20068;-80
2023/01/06 13:23:20;;;;;;;24.15;13.50;;;9.20;99.90;;;;;;4936213;29;20039;-80
2023/01/06 13:26:14;;;;;;;17.33;8.80;;;9.20;99.90;;;;;;4917854;29;20035;-80
2023/01/06 13:29:14;;;;;;;10.05;5.15;;;9.10;99.90;;;;;;4935147;29;20035;-79
2023/01/06 13:31:54;;;;;;;6.70;2.50;;;9.20;99.90;;;;;;4936556;29;20043;-82
2023/01/06 13:34:58;;;;;;;6.50;3.28;;;9.10;99.90;;;;;;4923447;29;20029;-79
2023/01/06 13:37:43;;;;;;;9.10;2.60;;;9.10;99.90;;;;;;4938725;29;20032;-80
2023/01/06 13:40:18;;;;;;;6.30;2.00;;;9.10;99.90;;;;;;4939982;28;20015;-79
2023/01/06 13:43:05;;;;;;;15.43;9.47;;;9.00;99.90;;;;;;4937128;29;20124;-79
2023/01/06 13:45:39;;;;;;;5.10;2.50;;;9.10;99.90;;;;;;4937457;29;20020;-79
2023/01/06 13:48:07;;;;;;;11.50;4.93;;;9.10;99.90;;;;;;4936742;29;20028;-80
2023/01/06 13:50:38;;;;;;;8.52;3.08;;;9.00;99.90;;;;;;4939637;29;20013;-81
2023/01/06 13:53:05;;;;;;;4.97;2.22;;;8.90;99.90;;;;;;4920190;29;20101;-80
2023/01/06 13:55:35;;;;;;;6.72;3.20;;;8.80;99.90;;;;;;4940099;29;20043;-81
2023/01/06 13:58:23;;;;;;;6.60;3.17;;;8.90;99.90;;;;;;4940043;29;20024;-80
2023/01/06 14:01:05;;;;;;;34.00;17.52;;;8.40;99.90;;;;;;4939064;29;20032;-80
2023/01/06 14:03:31;;;;;;;20.08;11.25;;;8.70;99.90;;;;;;4939243;29;20104;-80
2023/01/06 14:05:58;;;;;;;29.75;16.45;;;8.70;99.90;;;;;;4922578;29;20035;-81
2023/01/06 14:08:30;;;;;;;23.58;13.57;;;8.70;99.90;;;;;;4922962;29;20047;-80
2023/01/06 14:11:33;;;;;;;24.05;13.05;;;8.70;99.90;;;;;;4938909;29;20035;-79
2023/01/06 14:14:03;;;;;;;27.35;14.13;;;8.70;99.90;;;;;;4919149;29;20039;-80
2023/01/06 14:16:47;;;;;;;47.45;21.80;;;8.60;99.90;;;;;;4937942;29;20016;-80
2023/01/06 14:19:30;;;;;;;27.15;12.57;;;8.60;99.90;;;;;;4937302;29;20004;-80
2023/01/06 14:22:13;;;;;;;8.60;3.95;;;8.60;99.90;;;;;;4920524;29;20012;-80
2023/01/06 14:24:42;;;;;;;7.57;3.47;;;8.50;99.90;;;;;;4938158;29;20035;-81
2023/01/06 14:27:11;;;;;;;5.07;1.50;;;8.30;99.90;;;;;;4940407;29;20016;-81
2023/01/06 14:29:43;;;;;;;4.80;2.78;;;8.30;99.90;;;;;;4938853;29;20020;-80
2023/01/06 14:32:13;;;;;;;5.60;2.42;;;8.30;99.90;;;;;;4937157;29;20084;-81
2023/01/06 14:34:55;;;;;;;7.65;2.83;;;8.20;99.90;;;;;;4922584;29;20012;-82
2023/01/06 14:37:41;;;;;;;12.80;2.50;;;8.20;99.90;;;;;;4935406;29;20526;-80
2023/01/06 14:40:25;;;;;;;7.20;2.50;;;8.10;99.90;;;;;;4936828;29;20028;-80
2023/01/06 14:42:54;;;;;;;7.63;2.70;;;8.00;99.90;;;;;;4940282;29;20116;-81
2023/01/06 14:45:24;;;;;;;5.72;2.65;;;7.90;99.90;;;;;;4936873;29;20099;-79
2023/01/06 14:47:53;;;;;;;8.00;3.63;;;7.80;99.90;;;;;;4936058;29;20031;-80
2023/01/06 14:50:26;;;;;;;8.00;2.97;;;7.70;99.90;;;;;;4937906;29;20024;-81
2023/01/06 14:53:08;;;;;;;11.85;4.80;;;7.60;99.90;;;;;;4940180;29;20080;-82
2023/01/06 14:55:42;;;;;;;12.27;4.47;;;7.50;99.90;;;;;;4922733;29;20036;-81
2023/01/06 14:58:30;;;;;;;12.43;6.40;;;7.40;99.90;;;;;;4922176;29;20031;-81
2023/01/06 15:01:03;;;;;;;10.95;4.70;;;7.10;99.90;;;;;;4908577;29;20131;-79
2023/01/06 15:03:30;;;;;;;14.27;5.40;;;7.20;99.90;;;;;;4913675;29;20060;-80
2023/01/06 15:06:12;;;;;;;20.55;10.57;;;7.20;99.90;;;;;;4918661;29;20049;-81
2023/01/06 15:08:39;;;;;;;25.05;13.50;;;7.00;99.90;;;;;;4937765;29;20060;-81
2023/01/06 15:11:28;;;;;;;50.85;28.52;;;6.90;99.90;;;;;;4923847;29;20028;-80
2023/01/06 15:13:55;;;;;;;65.45;38.53;;;6.90;99.90;;;;;;4923755;29;20088;-80
2023/01/06 15:16:38;;;;;;;54.17;30.80;;;6.90;99.90;;;;;;4923731;29;20053;-81
2023/01/06 15:19:11;;;;;;;37.60;21.25;;;6.80;99.90;;;;;;4924157;29;20089;-81
2023/01/06 15:24:24;;;;;;;29.88;19.15;;;6.60;99.90;;;;;;5045676;23;20044;-81
2023/01/06 15:26:52;;;;;;;20.00;14.05;;;6.50;99.90;;;;;;4961042;29;20035;-82
2023/01/06 15:29:21;;;;;;;36.55;18.92;;;6.50;99.90;;;;;;4961576;29;20034;-80
2023/01/06 15:31:49;;;;;;;76.78;38.92;;;6.30;99.90;;;;;;4961233;29;20052;-81
2023/01/06 15:34:34;;;;;;;86.43;46.47;;;6.00;99.90;;;;;;4959769;29;20027;-81
2023/01/06 15:37:03;;;;;;;63.85;39.92;;;6.20;99.90;;;;;;4961970;28;20008;-81
2023/01/06 15:39:32;;;;;;;51.53;30.63;;;6.10;99.90;;;;;;4961656;29;20039;-81
2023/01/06 15:41:59;;;;;;;46.95;25.42;;;6.10;99.90;;;;;;4960972;28;20035;-81
2023/01/06 15:44:37;;;;;;;35.95;21.08;;;6.00;99.90;;;;;;4959096;29;20091;-81
2023/01/06 15:47:14;;;;;;;36.03;23.02;;;5.90;99.90;;;;;;4959197;29;20036;-82
2023/01/06 15:49:52;;;;;;;20.73;12.57;;;5.80;99.90;;;;;;4960934;29;20092;-82
2023/01/06 15:52:37;;;;;;;23.00;11.38;;;5.80;99.90;;;;;;4957291;29;20062;-80
2023/01/06 15:55:06;;;;;;;31.92;17.60;;;5.70;99.90;;;;;;4960006;29;20043;-81
2023/01/06 15:57:42;;;;;;;40.85;21.77;;;5.40;99.90;;;;;;4957732;29;20031;-80
2023/01/06 16:00:18;;;;;;;;;;;5.40;99.90;;;;;;4957946;29;20453;-81
2023/01/06 16:02:48;;;;;;;28.75;15.65;;;5.30;99.90;;;;;;4957720;29;19974;-81
2023/01/06 16:05:35;;;;;;;33.33;16.08;;;5.20;99.90;;;;;;4961707;28;20023;-80
2023/01/06 16:08:04;;;;;;;45.63;24.02;;;5.20;99.90;;;;;;4961007;29;20039;-81
2023/01/06 16:10:35;;;;;;;43.97;17.48;;;5.30;99.90;;;;;;4961052;28;20059;-83
2023/01/06 16:13:22;;;;;;;32.05;13.73;;;5.40;99.90;;;;;;4961044;28;20099;-81
2023/01/06 16:15:53;;;;;;;84.75;37.83;;;5.50;99.90;;;;;;4960982;28;20101;-82
2023/01/06 16:18:31;;;;;;;106.15;48.58;;;5.10;99.90;;;;;;4959840;28;20104;-80
2023/01/06 16:20:59;;;;;;;54.45;26.40;;;5.20;99.90;;;;;;4961582;28;20030;-82
2023/01/06 16:23:36;;;;;;;72.40;35.10;;;5.20;99.90;;;;;;4962298;28;20035;-82
2023/01/06 16:26:12;;;;;;;62.78;34.42;;;5.10;99.90;;;;;;4960514;29;20035;-82
2023/01/06 16:28:51;;;;;;;51.28;27.10;;;5.20;99.90;;;;;;4958151;29;20043;-80
2023/01/06 16:31:46;;;;;;;98.32;49.33;;;5.10;99.90;;;;;;4957160;29;20090;-80
2023/01/06 16:34:30;;;;;;;131.25;65.68;;;5.30;99.90;;;;;;4948317;28;20136;-80
2023/01/06 16:36:57;;;;;;;105.38;50.42;;;5.40;99.90;;;;;;4958438;29;20094;-82
2023/01/06 16:39:24;;;;;;;98.85;47.88;;;5.30;99.90;;;;;;4960739;28;20019;-81
2023/01/06 16:41:59;;;;;;;72.97;38.17;;;5.30;99.90;;;;;;4959839;29;20031;-81
2023/01/06 16:44:30;;;;;;;53.63;27.98;;;5.40;99.90;;;;;;4958416;29;20133;-82
2023/01/06 16:46:59;;;;;;;48.90;24.70;;;5.40;99.90;;;;;;4961022;29;20008;-81
2023/01/06 16:49:25;;;;;;;61.33;35.28;;;5.40;99.90;;;;;;4958470;29;20048;-82
2023/01/06 16:51:53;;;;;;;44.05;23.60;;;5.40;99.90;;;;;;4959711;29;20027;-81
2023/01/06 16:54:29;;;;;;;33.30;17.30;;;5.40;99.90;;;;;;4957719;29;20034;-80
2023/01/06 16:56:55;;;;;;;30.02;16.45;;;5.40;99.90;;;;;;4955198;29;20106;-80
2023/01/06 16:59:27;;;;;;;;;;;5.40;99.90;;;;;;4956884;29;20035;-80
2023/01/06 17:01:53;;;;;;;28.27;16.17;;;5.40;99.90;;;;;;4957161;28;19911;-80
2023/01/06 17:04:19;;;;;;;;;;;5.50;99.90;;;;;;4959477;29;20031;-80
2023/01/06 17:06:45;;;;;;;42.70;23.02;;;5.30;99.90;;;;;;4958324;28;19914;-82
2023/01/06 17:09:21;;;;;;;;;;;5.40;99.90;;;;;;4961794;28;20055;-83
2023/01/06 17:11:48;;;;;;;38.90;22.13;;;5.40;99.90;;;;;;4962449;28;19895;-84
2023/01/06 17:14:16;;;;;;;45.67;25.58;;;5.50;99.90;;;;;;4961712;28;20016;-82
2023/01/06 17:16:43;;;;;;;54.42;30.80;;;5.40;99.90;;;;;;4962493;28;20032;-81
2023/01/06 17:19:22;;;;;;;85.03;45.13;;;5.40;99.90;;;;;;4962348;28;20008;-82
2023/01/06 17:27:25;;;;;;;121.20;66.32;;;5.50;99.90;;;;;;5635484;23;20039;-82
2023/01/06 17:29:52;;;;;;;122.90;66.72;;;5.60;99.90;;;;;;4963019;29;20023;-81
2023/01/06 17:32:40;;;;;;;115.63;65.10;;;5.60;99.90;;;;;;4980035;28;20030;-83
2023/01/06 17:35:21;;;;;;;130.02;68.72;;;5.70;99.90;;;;;;4981151;28;20023;-83
2023/01/06 17:37:47;;;;;;;110.03;61.30;;;5.70;99.90;;;;;;4980829;28;20042;-83
2023/01/06 17:40:16;;;;;;;;;;;5.60;99.90;;;;;;4964748;28;20086;-81
2023/01/06 17:42:43;;;;;;;97.90;54.33;;;5.80;99.90;;;;;;4981185;28;19938;-82
2023/01/06 17:45:20;;;;;;;76.70;43.00;;;5.80;99.90;;;;;;4964452;29;20031;-83
2023/01/06 17:47:50;;;;;;;169.02;86.85;;;5.50;99.90;;;;;;4964430;29;20035;-81
2023/01/06 17:50:29;;;;;;;110.95;58.65;;;5.90;99.90;;;;;;4980728;29;20079;-83
2023/01/06 17:56:06;;;;;;;61.97;30.42;;;6.00;99.90;;;;;;4980677;28;20026;-81
2023/01/06 17:58:36;;;;;;;66.10;32.38;;;6.00;99.90;;;;;;4980840;29;20035;-84
2023/01/06 18:01:02;;;;;;;88.97;46.45;;;5.90;99.90;;;;;;4963964;28;20022;-82
2023/01/06 18:03:30;;;;;;;;;;;6.00;99.90;;;;;;4980769;28;20051;-82
2023/01/06 18:06:25;;;;;;;48.75;25.50;;;6.00;99.90;;;;;;4980630;28;19898;-83
2023/01/06 18:08:59;;;;;;;41.08;19.27;;;6.00;99.90;;;;;;4969464;28;20091;-84
2023/01/06 18:11:28;;;;;;;26.83;13.23;;;6.00;99.90;;;;;;4963995;29;20034;-82
2023/01/06 18:13:54;;;;;;;29.05;16.33;;;6.00;99.90;;;;;;4980109;28;20029;-84
2023/01/06 18:16:32;;;;;;;35.05;19.85;;;6.10;99.90;;;;;;4980343;28;20065;-82
2023/01/06 18:19:15;;;;;;;32.42;19.88;;;6.10;99.90;;;;;;4963896;29;20031;-83
2023/01/06 18:21:41;;;;;;;78.22;41.55;;;6.20;99.90;;;;;;4961237;29;20016;-83
2023/01/06 18:24:11;;;;;;;;;;;6.20;99.90;;;;;;4944914;29;20067;-82
2023/01/06 18:26:40;;;;;;;186.50;90.57;;;6.20;99.90;;;;;;4944637;29;19895;-82
2023/01/06 18:29:11;;;;;;;146.93;72.65;;;6.20;99.90;;;;;;4961125;29;20031;-83
2023/01/06 18:31:39;;;;;;;122.97;60.38;;;6.20;99.90;;;;;;4961374;29;20016;-83
2023/01/06 18:34:37;;;;;;;68.75;34.00;;;6.30;99.90;;;;;;4960491;29;20075;-82
2023/01/06 18:37:03;;;;;;;32.15;14.60;;;6.30;99.90;;;;;;4959744;29;20040;-82
2023/01/06 18:39:55;;;;;;;;;;;6.30;99.90;;;;;;4944614;29;20031;-82
2023/01/06 18:42:43;;;;;;;57.42;29.85;;;6.20;99.90;;;;;;4941208;29;19958;-83
2023/01/06 18:45:21;;;;;;;71.68;36.65;;;6.30;99.90;;;;;;4944954;29;20034;-82
2023/01/06 18:47:50;;;;;;;59.20;28.92;;;6.30;99.90;;;;;;4944920;29;20008;-83
2023/01/06 18:50:28;;;;;;;42.90;24.50;;;6.20;99.90;;;;;;4960674;29;20039;-83
2023/01/06 18:52:58;;;;;;;90.15;44.33;;;6.30;99.90;;;;;;4960360;29;20027;-83
2023/01/06 18:55:41;;;;;;;122.57;56.53;;;6.20;99.90;;;;;;4961260;29;20063;-84
2023/01/06 18:58:24;;;;;;;207.70;109.38;;;6.20;99.90;;;;;;4944726;29;20048;-83
2023/01/06 19:00:56;;;;;;;76.25;39.75;;;6.30;99.90;;;;;;4961043;29;20023;-83
2023/01/06 19:03:35;;;;;;;38.58;20.80;;;6.30;99.90;;;;;;4944833;29;20039;-82
2023/01/06 19:06:23;;;;;;;62.33;35.13;;;6.20;99.90;;;;;;4944134;29;20012;-83
2023/01/06 19:08:50;;;;;;;79.95;43.45;;;6.10;99.90;;;;;;4961158;29;20068;-82
2023/01/06 19:11:23;;;;;;;138.77;63.65;;;6.00;99.90;;;;;;4945005;29;20107;-81
2023/01/06 19:13:58;;;;;;;219.18;104.88;;;5.90;99.90;;;;;;4961298;29;20018;-83
2023/01/06 19:16:57;;;;;;;185.55;78.32;;;5.80;99.90;;;;;;4944734;29;20067;-81
2023/01/06 23:57:27;;;;;;;24.38;9.77;;;6.40;99.90;;;;;;5790006;23;20039;-80
2023/01/06 23:59:53;;;;;;;25.15;10.90;;;6.40;99.90;;;;;;4980028;29;20035;-79
